sim
Sign-in with your pilot id or email,
or register
Callsign
Passwort

Schedule Details

Flight Number: DLH2403 (1)
Departure: Basel Mulhouse-Freiburg EuroAirport (LFSB) at 05:05
Arrival: Munich Airport (EDDM) at 06:05
Route: Lufthansa Passenger Schedule. Enter filed route here before submitting Pirep.

Weather Information
Getting current METAR information for LFSB 211200Z 12005KT 090V170 9999 FEW045 FEW050TCU SCT280 25/14 Q1015 NOSIG
Getting current METAR information for EDDM 211150Z 04004KT 330V110 CAVOK 22/13 Q1016 NOSIG

Schedule Frequency

Route Map